Time;durP1;ratioP1;P1;durP2;ratioP2;P2;SDS_P1;SDS_P2;PMS_P1;PMS_P2;Temp;Humidity;BMP_temperature;BMP_pressure;BME280_temperature;BME280_humidity;BME280_pressure;Samples;Min_cycle;Max_cycle;Signal;HPM_P1;HPM_P2
2024/03/28 00:01:02;;;;;;;4.28;2.60;;;6.80;99.90;;;;;;4975180;28;20029;-56
2024/03/28 00:03:27;;;;;;;5.30;2.80;;;6.80;99.90;;;;;;4975560;28;20027;-53
2024/03/28 00:05:54;;;;;;;6.97;2.70;;;6.70;99.90;;;;;;4989745;28;20034;-55
2024/03/28 00:08:20;;;;;;;4.53;3.17;;;6.70;99.90;;;;;;4975248;28;20113;-55
2024/03/28 00:10:47;;;;;;;4.65;2.53;;;6.70;99.90;;;;;;4974970;28;20101;-54
2024/03/28 00:13:13;;;;;;;4.88;2.60;;;6.80;99.90;;;;;;4975477;28;20117;-57
2024/03/28 00:15:38;;;;;;;5.78;2.55;;;6.80;99.90;;;;;;4975106;28;20138;-56
2024/03/28 00:18:05;;;;;;;5.38;2.80;;;6.80;99.90;;;;;;4975162;28;20038;-55
2024/03/28 00:20:31;;;;;;;3.72;2.28;;;6.80;99.90;;;;;;4974961;28;20031;-54
2024/03/28 00:22:56;;;;;;;4.38;2.38;;;6.70;99.90;;;;;;4974990;28;20022;-56
2024/03/28 00:25:22;;;;;;;5.22;2.70;;;6.70;99.90;;;;;;4975026;28;20031;-55
2024/03/28 00:27:47;;;;;;;5.20;2.80;;;6.80;99.90;;;;;;4974921;28;20026;-55
2024/03/28 00:30:13;;;;;;;5.97;2.92;;;6.70;99.90;;;;;;4974648;28;20483;-54
2024/03/28 00:32:39;;;;;;;5.18;2.75;;;6.70;99.90;;;;;;4974647;28;20487;-55
2024/03/28 00:35:05;;;;;;;7.80;2.30;;;6.70;99.90;;;;;;4974886;28;20034;-56
2024/03/28 00:37:31;;;;;;;4.05;2.47;;;6.70;99.90;;;;;;4988614;28;20483;-53
2024/03/28 00:39:56;;;;;;;3.72;2.67;;;6.70;99.90;;;;;;4974306;28;20027;-56
2024/03/28 00:42:22;;;;;;;3.97;2.60;;;6.70;99.90;;;;;;4974370;28;20031;-55
2024/03/28 00:44:48;;;;;;;3.45;2.42;;;6.60;99.90;;;;;;4974713;28;20030;-54
2024/03/28 00:47:13;;;;;;;6.47;2.72;;;6.60;99.90;;;;;;4974454;28;20023;-54
2024/03/28 00:49:39;;;;;;;7.45;3.53;;;6.50;99.90;;;;;;4974733;28;20102;-51
2024/03/28 00:52:04;;;;;;;7.53;2.78;;;6.50;99.90;;;;;;4974401;28;20098;-51
2024/03/28 00:54:30;;;;;;;3.67;2.55;;;6.50;99.90;;;;;;4974659;28;20097;-54
2024/03/28 00:56:55;;;;;;;4.00;2.30;;;6.50;99.90;;;;;;4974967;28;20023;-55
2024/03/28 00:59:21;;;;;;;6.35;2.75;;;6.40;99.90;;;;;;4974393;28;20031;-52
2024/03/28 01:01:47;;;;;;;7.75;2.15;;;6.40;99.90;;;;;;4974520;28;20058;-52
2024/03/28 01:04:14;;;;;;;3.75;2.60;;;6.50;99.90;;;;;;4975121;28;20102;-52
2024/03/28 01:06:40;;;;;;;4.78;2.80;;;6.50;99.90;;;;;;4974486;28;20059;-54
2024/03/28 01:09:06;;;;;;;4.55;2.45;;;6.50;99.90;;;;;;4974086;28;20390;-55
2024/03/28 01:11:31;;;;;;;5.55;2.47;;;6.50;99.90;;;;;;4974390;28;20030;-53
2024/03/28 01:13:57;;;;;;;5.10;2.50;;;6.50;99.90;;;;;;4974334;28;20065;-52
2024/03/28 01:16:22;;;;;;;5.43;2.30;;;6.60;99.90;;;;;;4974564;28;20033;-55
2024/03/28 01:18:48;;;;;;;3.72;2.72;;;6.60;99.90;;;;;;4989030;28;20394;-55
2024/03/28 01:21:13;;;;;;;6.28;3.05;;;6.50;99.90;;;;;;4974179;28;20034;-52
2024/03/28 01:23:39;;;;;;;4.18;2.63;;;6.50;99.90;;;;;;4974099;28;20022;-51
2024/03/28 01:26:04;;;;;;;4.15;2.80;;;6.50;99.90;;;;;;4973983;28;20544;-55
2024/03/28 01:28:30;;;;;;;5.80;2.90;;;6.50;99.90;;;;;;4974305;28;20107;-53
2024/03/28 01:31:01;;;;;;;4.07;2.90;;;6.50;99.90;;;;;;4974421;28;20367;-54
2024/03/28 01:33:28;;;;;;;5.63;3.28;;;6.40;99.90;;;;;;4974275;28;20093;-55
2024/03/28 01:35:53;;;;;;;4.00;2.70;;;6.40;99.90;;;;;;4974044;28;20075;-52
2024/03/28 01:38:19;;;;;;;5.57;3.13;;;6.30;99.90;;;;;;4973725;28;20024;-57
2024/03/28 01:43:16;;;;;;;8.00;2.97;;;6.30;99.90;;;;;;5008191;28;20049;-54
2024/03/28 01:45:42;;;;;;;7.97;3.80;;;6.30;99.90;;;;;;5005731;28;20425;-53
2024/03/28 01:48:08;;;;;;;6.78;3.40;;;6.20;99.90;;;;;;4993254;28;20027;-51
2024/03/28 01:50:34;;;;;;;5.70;3.40;;;6.20;99.90;;;;;;5004290;28;20036;-53
2024/03/28 01:53:00;;;;;;;5.85;3.20;;;6.20;99.90;;;;;;4997976;28;20105;-52
2024/03/28 01:55:26;;;;;;;9.15;4.15;;;6.20;99.90;;;;;;4996932;28;20045;-53
2024/03/28 01:57:52;;;;;;;6.75;3.47;;;6.20;99.90;;;;;;4996693;28;20122;-52
2024/03/28 02:00:19;;;;;;;7.75;3.92;;;6.20;99.90;;;;;;4996913;28;20038;-52
2024/03/28 02:02:45;;;;;;;6.55;3.50;;;6.10;99.90;;;;;;4997070;28;20022;-53
2024/03/28 02:05:10;;;;;;;7.05;3.55;;;6.10;99.90;;;;;;4995370;28;20034;-53
2024/03/28 02:07:36;;;;;;;6.63;3.75;;;6.10;99.90;;;;;;4996178;28;20046;-52
2024/03/28 02:10:02;;;;;;;5.95;3.60;;;6.10;99.90;;;;;;4978993;28;20022;-52
2024/03/28 02:12:31;;;;;;;6.75;4.18;;;6.10;99.90;;;;;;4993144;28;20034;-52
2024/03/28 02:14:56;;;;;;;6.32;4.03;;;6.00;99.90;;;;;;4996671;28;20037;-52
2024/03/28 02:17:22;;;;;;;6.05;4.05;;;6.00;99.90;;;;;;4992938;28;20026;-56
2024/03/28 02:19:47;;;;;;;6.45;3.97;;;6.00;99.90;;;;;;4978883;28;20034;-54
2024/03/28 02:22:13;;;;;;;10.05;4.55;;;6.00;99.90;;;;;;4981355;28;20506;-53
2024/03/28 02:24:40;;;;;;;7.50;4.57;;;6.00;99.90;;;;;;4994910;28;20548;-52
2024/03/28 02:27:06;;;;;;;9.35;4.88;;;5.90;99.90;;;;;;4996622;28;20475;-54
2024/03/28 02:29:31;;;;;;;8.77;4.30;;;5.90;99.90;;;;;;4996564;28;20022;-56
2024/03/28 02:31:57;;;;;;;10.57;4.47;;;5.90;99.90;;;;;;4996313;28;20398;-53
2024/03/28 02:34:22;;;;;;;7.75;4.32;;;5.90;99.90;;;;;;4996783;28;20033;-54
2024/03/28 02:36:48;;;;;;;8.48;4.97;;;5.90;99.90;;;;;;4996311;28;20026;-54
2024/03/28 02:39:13;;;;;;;9.00;5.05;;;5.80;99.90;;;;;;4996013;28;20030;-53
2024/03/28 02:41:39;;;;;;;9.82;4.38;;;5.80;99.90;;;;;;4995836;28;20026;-53
2024/03/28 02:44:05;;;;;;;7.95;4.78;;;5.80;99.90;;;;;;4996195;28;20049;-53
2024/03/28 02:46:30;;;;;;;9.63;5.50;;;5.90;99.90;;;;;;4989018;28;20152;-52
2024/03/28 02:48:56;;;;;;;5.60;4.05;;;5.90;99.90;;;;;;4995833;28;20027;-52
2024/03/28 02:51:21;;;;;;;7.28;4.28;;;5.90;99.90;;;;;;4993460;28;20030;-53
2024/03/28 02:53:47;;;;;;;7.97;4.57;;;5.90;99.90;;;;;;4986401;28;20129;-52
2024/03/28 02:56:13;;;;;;;9.68;4.63;;;5.80;99.90;;;;;;4997993;28;20034;-56
2024/03/28 02:58:38;;;;;;;8.07;5.07;;;5.90;99.90;;;;;;4995781;28;20041;-52
2024/03/28 03:01:04;;;;;;;6.53;4.30;;;5.80;99.90;;;;;;4995807;28;20052;-54
2024/03/28 03:03:30;;;;;;;9.70;4.35;;;5.80;99.90;;;;;;4995354;28;20030;-53
2024/03/28 03:05:55;;;;;;;8.23;4.38;;;5.80;99.90;;;;;;4976270;28;20149;-56
2024/03/28 03:08:21;;;;;;;8.25;4.78;;;5.70;99.90;;;;;;4981389;28;20439;-52
2024/03/28 03:10:47;;;;;;;8.75;4.95;;;5.70;99.90;;;;;;4982142;28;20478;-53
2024/03/28 03:13:12;;;;;;;8.05;4.85;;;5.70;99.90;;;;;;4995213;28;20038;-53
2024/03/28 03:15:38;;;;;;;9.15;5.47;;;5.70;99.90;;;;;;4995230;28;20030;-52
2024/03/28 03:18:04;;;;;;;8.93;4.70;;;5.80;99.90;;;;;;4995118;28;20041;-51
2024/03/28 03:20:29;;;;;;;8.68;4.60;;;5.80;99.90;;;;;;4985083;28;20114;-51
2024/03/28 03:23:04;;;;;;;8.65;5.15;;;5.80;99.90;;;;;;4988694;28;20038;-54
2024/03/28 03:25:41;;;;;;;10.55;4.88;;;5.80;99.90;;;;;;4990345;28;20037;-53
2024/03/28 03:36:20;;;;;;;7.60;4.65;;;5.70;99.90;;;;;;4994567;28;20196;-59
2024/03/28 03:38:46;;;;;;;7.90;4.68;;;5.70;99.90;;;;;;4994262;28;20026;-52
2024/03/28 03:41:12;;;;;;;8.73;4.65;;;5.70;99.90;;;;;;4994417;28;20509;-53
2024/03/28 03:43:37;;;;;;;6.72;4.35;;;5.70;99.90;;;;;;4994467;28;20363;-54
2024/03/28 03:46:03;;;;;;;8.18;4.50;;;5.70;99.90;;;;;;4989753;28;20372;-55
2024/03/28 03:48:28;;;;;;;10.43;5.93;;;5.70;99.90;;;;;;4982325;28;20426;-52
2024/03/28 03:50:54;;;;;;;7.70;4.30;;;5.60;99.90;;;;;;4994682;28;20034;-54
2024/03/28 03:53:19;;;;;;;7.07;4.13;;;5.60;99.90;;;;;;4994501;28;20027;-56
2024/03/28 03:55:58;;;;;;;6.68;3.92;;;5.50;99.90;;;;;;4994522;28;20026;-52
2024/03/28 03:58:23;;;;;;;9.40;5.43;;;5.50;99.90;;;;;;4993303;28;20038;-55
2024/03/28 04:00:49;;;;;;;6.40;3.78;;;5.50;99.90;;;;;;4993542;28;20088;-55
2024/03/28 04:03:16;;;;;;;11.43;4.38;;;5.40;99.90;;;;;;4994429;28;20026;-55
2024/03/28 04:05:41;;;;;;;13.10;5.15;;;5.40;99.90;;;;;;4994220;28;20034;-53
2024/03/28 04:08:08;;;;;;;7.22;4.47;;;5.40;99.90;;;;;;4994149;28;20030;-54
2024/03/28 04:10:34;;;;;;;7.75;4.22;;;5.40;99.90;;;;;;4994222;28;20046;-52
2024/03/28 04:12:59;;;;;;;8.38;4.35;;;5.40;99.90;;;;;;4975997;28;20450;-53
2024/03/28 04:15:25;;;;;;;6.20;4.35;;;5.40;99.90;;;;;;4993920;28;20034;-53
2024/03/28 04:17:51;;;;;;;7.15;4.70;;;5.50;99.90;;;;;;4983969;28;20073;-54
2024/03/28 04:20:16;;;;;;;5.20;3.47;;;5.50;99.90;;;;;;4987248;28;20121;-56
2024/03/28 04:22:42;;;;;;;9.25;4.20;;;5.60;99.90;;;;;;4994095;28;20023;-56
2024/03/28 04:25:08;;;;;;;5.93;3.80;;;5.50;99.90;;;;;;4993798;28;20018;-52
2024/03/28 04:27:33;;;;;;;11.35;3.55;;;5.50;99.90;;;;;;4993920;28;20027;-52
2024/03/28 04:29:59;;;;;;;8.35;4.30;;;5.50;99.90;;;;;;4993798;28;20509;-54
2024/03/28 04:32:24;;;;;;;7.32;4.18;;;5.40;99.90;;;;;;4993720;28;20030;-55
2024/03/28 04:34:50;;;;;;;7.25;3.67;;;5.30;99.90;;;;;;4994014;28;20026;-56
2024/03/28 04:37:15;;;;;;;6.47;3.38;;;5.30;99.90;;;;;;4976513;28;20049;-56
2024/03/28 04:39:41;;;;;;;5.72;3.95;;;5.20;99.90;;;;;;4993823;28;20391;-56
2024/03/28 04:42:07;;;;;;;6.13;3.63;;;5.20;99.90;;;;;;4990742;28;20046;-54
2024/03/28 04:44:33;;;;;;;5.35;3.42;;;5.20;99.90;;;;;;4979528;28;20027;-51
2024/03/28 04:46:58;;;;;;;6.30;3.72;;;5.20;99.90;;;;;;4986363;28;20033;-54
2024/03/28 04:49:24;;;;;;;5.50;3.80;;;5.20;99.90;;;;;;4991263;28;20105;-53
2024/03/28 04:51:49;;;;;;;6.72;3.35;;;5.20;99.90;;;;;;4988473;28;20105;-51
2024/03/28 04:54:15;;;;;;;8.05;4.38;;;5.20;99.90;;;;;;4993447;28;20121;-52
2024/03/28 04:56:41;;;;;;;6.22;3.38;;;5.20;99.90;;;;;;4993145;28;20498;-52
2024/03/28 04:59:07;;;;;;;6.03;3.67;;;5.20;99.90;;;;;;4975735;28;20053;-52
2024/03/28 05:01:33;;;;;;;5.88;3.40;;;5.30;99.90;;;;;;4993271;28;20085;-51
2024/03/28 05:03:59;;;;;;;4.90;3.05;;;5.30;99.90;;;;;;4992530;28;20030;-52
2024/03/28 05:06:24;;;;;;;3.30;2.55;;;5.40;99.90;;;;;;4989266;28;20101;-52
2024/03/28 05:08:51;;;;;;;7.53;2.80;;;5.40;99.90;;;;;;4990942;28;20638;-52
2024/03/28 05:11:17;;;;;;;4.97;2.72;;;5.40;99.90;;;;;;4985022;28;20054;-52
2024/03/28 05:13:45;;;;;;;6.97;3.00;;;5.30;99.90;;;;;;4973699;28;20019;-56
2024/03/28 05:16:14;;;;;;;5.40;2.80;;;5.30;99.90;;;;;;4991724;28;20525;-54
2024/03/28 05:18:41;;;;;;;5.13;2.95;;;5.30;99.90;;;;;;4979294;28;20069;-53
2024/03/28 05:21:07;;;;;;;6.25;2.85;;;5.30;99.90;;;;;;4981235;28;20041;-53
2024/03/28 05:23:32;;;;;;;3.70;2.40;;;5.30;99.90;;;;;;4989898;28;20395;-55
2024/03/28 05:25:58;;;;;;;4.93;3.00;;;5.30;99.90;;;;;;4989477;28;20381;-55
2024/03/28 05:28:23;;;;;;;4.35;2.40;;;5.30;99.90;;;;;;4989622;28;20537;-53
2024/03/28 05:30:49;;;;;;;7.00;3.08;;;5.20;99.90;;;;;;4990910;28;20030;-52
2024/03/28 05:33:15;;;;;;;4.70;2.17;;;5.20;99.90;;;;;;4993090;28;20030;-53
2024/03/28 05:35:41;;;;;;;4.15;2.47;;;5.20;99.90;;;;;;4992870;28;20037;-52
2024/03/28 05:38:06;;;;;;;5.57;3.00;;;5.30;99.90;;;;;;4990092;28;20026;-56
2024/03/28 05:40:32;;;;;;;6.00;2.70;;;5.30;99.90;;;;;;4991112;28;20101;-55
2024/03/28 05:42:58;;;;;;;4.63;2.40;;;5.30;99.90;;;;;;4973760;28;20041;-54
2024/03/28 05:45:24;;;;;;;4.25;2.75;;;5.30;99.90;;;;;;4981797;28;20023;-56
2024/03/28 05:47:49;;;;;;;3.22;2.08;;;5.30;99.90;;;;;;4973401;28;20061;-50
2024/03/28 05:50:15;;;;;;;5.22;3.05;;;5.20;99.90;;;;;;4990658;28;20038;-52
2024/03/28 05:52:40;;;;;;;3.55;2.40;;;5.30;99.90;;;;;;4992954;28;20054;-49
2024/03/28 05:55:06;;;;;;;2.72;1.98;;;5.30;99.90;;;;;;4991181;28;20029;-53
2024/03/28 05:57:32;;;;;;;5.20;2.45;;;5.30;99.90;;;;;;4986974;28;20033;-51
2024/03/28 05:59:57;;;;;;;5.00;2.75;;;5.30;99.90;;;;;;4992447;28;20053;-51
2024/03/28 06:02:23;;;;;;;3.17;1.88;;;5.50;99.90;;;;;;4975239;28;20474;-55
2024/03/28 06:04:48;;;;;;;3.92;2.22;;;5.70;99.90;;;;;;4992868;28;20352;-54
2024/03/28 06:07:14;;;;;;;3.60;1.80;;;6.20;99.90;;;;;;4992932;28;20367;-55
2024/03/28 06:09:40;;;;;;;1.73;1.20;;;6.80;99.90;;;;;;4984254;28;20113;-56
2024/03/28 06:12:06;;;;;;;2.63;1.67;;;7.40;99.90;;;;;;4992266;28;20441;-51
2024/03/28 06:14:31;;;;;;;2.58;1.50;;;7.90;99.90;;;;;;4992222;28;20026;-54
2024/03/28 06:16:57;;;;;;;2.63;1.35;;;8.40;99.90;;;;;;4992412;28;20062;-52
2024/03/28 06:19:22;;;;;;;2.28;1.13;;;8.70;99.90;;;;;;4989230;28;20043;-55
2024/03/28 06:21:48;;;;;;;3.03;1.13;;;8.80;99.90;;;;;;4992200;28;20437;-55
2024/03/28 06:24:13;;;;;;;1.45;1.00;;;8.80;99.90;;;;;;4992714;28;20023;-51
2024/03/28 06:26:39;;;;;;;1.27;0.90;;;9.00;99.90;;;;;;4992457;28;20019;-55
2024/03/28 06:29:05;;;;;;;2.83;1.00;;;9.00;99.90;;;;;;4992510;28;20027;-54
2024/03/28 06:31:34;;;;;;;1.42;0.90;;;8.90;99.90;;;;;;4992332;28;20061;-55
2024/03/28 06:34:00;;;;;;;1.45;0.93;;;8.80;99.90;;;;;;4992611;28;20089;-53
2024/03/28 06:36:27;;;;;;;1.77;0.93;;;8.50;99.90;;;;;;4978311;28;20037;-53
2024/03/28 06:38:52;;;;;;;2.20;1.02;;;8.40;99.90;;;;;;4996150;28;20034;-54
2024/03/28 06:41:18;;;;;;;3.03;1.20;;;8.30;99.90;;;;;;4995843;28;20038;-53
2024/03/28 06:43:48;;;;;;;1.30;0.93;;;8.30;99.90;;;;;;4995681;28;20061;-54
2024/03/28 06:46:14;;;;;;;1.23;0.90;;;8.30;99.90;;;;;;4995630;28;20136;-52
2024/03/28 06:48:40;;;;;;;1.58;1.00;;;8.30;99.90;;;;;;4995571;28;20030;-53
2024/03/28 06:51:05;;;;;;;1.25;0.93;;;8.30;99.90;;;;;;4995353;28;20061;-55
2024/03/28 06:53:31;;;;;;;1.55;1.00;;;8.30;99.90;;;;;;4995398;28;20034;-54
2024/03/28 06:55:56;;;;;;;1.58;1.17;;;8.40;99.90;;;;;;4995518;28;20026;-52
2024/03/28 06:58:22;;;;;;;1.88;0.82;;;8.60;99.90;;;;;;4995416;28;20026;-55
2024/03/28 07:00:47;;;;;;;2.72;1.13;;;8.80;99.90;;;;;;4995043;28;20417;-53
2024/03/28 07:03:13;;;;;;;2.22;0.80;;;8.80;99.90;;;;;;4995374;28;20053;-53
2024/03/28 07:05:38;;;;;;;1.50;0.70;;;8.70;99.90;;;;;;4977768;28;20481;-53
2024/03/28 07:08:04;;;;;;;2.47;0.88;;;8.60;99.90;;;;;;4995162;28;20022;-53
2024/03/28 07:10:30;;;;;;;2.10;0.60;;;8.60;99.90;;;;;;4995290;28;20026;-52
2024/03/28 07:12:55;;;;;;;1.60;0.90;;;8.70;99.90;;;;;;4995321;28;20054;-52
2024/03/28 07:15:21;;;;;;;3.60;1.00;;;8.60;99.90;;;;;;4995173;28;20038;-54
2024/03/28 07:17:46;;;;;;;3.45;0.90;;;8.70;99.90;;;;;;4995058;28;20157;-55
2024/03/28 07:20:12;;;;;;;1.25;0.70;;;8.70;99.90;;;;;;4994666;28;20481;-54
2024/03/28 07:22:38;;;;;;;1.85;0.70;;;8.80;99.90;;;;;;4995154;28;20038;-51
2024/03/28 07:25:04;;;;;;;2.30;0.90;;;8.80;99.90;;;;;;4994911;28;20037;-52
2024/03/28 07:27:31;;;;;;;5.53;2.25;;;8.60;99.90;;;;;;4994965;28;20023;-54
2024/03/28 07:29:57;;;;;;;2.22;1.27;;;8.50;99.90;;;;;;4995252;28;20030;-56
2024/03/28 07:32:22;;;;;;;1.33;0.70;;;8.40;99.90;;;;;;4994877;28;20037;-53
2024/03/28 07:34:48;;;;;;;4.70;0.98;;;8.40;99.90;;;;;;4994641;28;20081;-50
2024/03/28 07:37:14;;;;;;;1.08;0.70;;;8.30;99.90;;;;;;4977570;28;20019;-53
2024/03/28 07:39:39;;;;;;;1.38;0.93;;;8.30;99.90;;;;;;4994724;28;20462;-52
2024/03/28 07:42:05;;;;;;;1.58;1.00;;;8.20;99.90;;;;;;4990995;28;20037;-55
2024/03/28 07:44:31;;;;;;;1.58;0.65;;;8.10;99.90;;;;;;4983224;28;20032;-50
2024/03/28 07:46:57;;;;;;;2.80;0.68;;;8.00;99.90;;;;;;4990631;28;20027;-51
2024/03/28 07:49:24;;;;;;;4.72;1.05;;;8.00;99.90;;;;;;4981497;28;20057;-50
2024/03/28 07:51:49;;;;;;;1.35;1.00;;;7.90;99.90;;;;;;4990602;28;20062;-52
2024/03/28 07:54:15;;;;;;;1.85;0.90;;;7.90;99.90;;;;;;4991022;28;20065;-52
2024/03/28 07:56:40;;;;;;;3.22;1.00;;;7.80;99.90;;;;;;4990576;28;20042;-51
2024/03/28 07:59:07;;;;;;;1.50;0.98;;;7.80;99.90;;;;;;4991968;28;20490;-53
2024/03/28 08:01:32;;;;;;;4.72;1.33;;;7.70;99.90;;;;;;4992053;28;20037;-51
2024/03/28 08:03:58;;;;;;;2.20;0.90;;;7.70;99.90;;;;;;4976244;28;20113;-51
2024/03/28 08:06:24;;;;;;;3.38;1.20;;;7.70;99.90;;;;;;4989210;28;20038;-51
2024/03/28 08:08:49;;;;;;;2.63;1.13;;;7.60;99.90;;;;;;4991516;28;20384;-52
2024/03/28 08:11:15;;;;;;;2.00;0.85;;;7.50;99.90;;;;;;4990716;28;20027;-51
2024/03/28 08:13:40;;;;;;;1.23;0.80;;;7.60;99.90;;;;;;4991711;28;20054;-54
2024/03/28 08:16:06;;;;;;;2.97;1.23;;;7.60;99.90;;;;;;4988342;28;20498;-50
2024/03/28 08:18:32;;;;;;;2.05;1.02;;;7.50;99.90;;;;;;4991856;28;20022;-54
2024/03/28 08:20:58;;;;;;;2.75;1.10;;;7.40;99.90;;;;;;4989744;28;20034;-55
2024/03/28 08:23:24;;;;;;;3.50;1.30;;;7.40;99.90;;;;;;4992170;28;20031;-53
2024/03/28 08:25:50;;;;;;;1.20;1.00;;;7.30;99.90;;;;;;4990262;28;20063;-54
2024/03/28 08:28:17;;;;;;;1.52;0.85;;;7.30;99.90;;;;;;4981349;28;20046;-50
2024/03/28 08:30:44;;;;;;;3.92;1.15;;;7.30;99.90;;;;;;4990915;28;20030;-51
2024/03/28 08:33:09;;;;;;;3.25;1.00;;;7.30;99.90;;;;;;4986418;28;20450;-54
2024/03/28 08:35:42;;;;;;;2.00;1.25;;;7.20;99.90;;;;;;4989584;28;20088;-50
2024/03/28 08:38:09;;;;;;;2.13;1.30;;;7.20;99.90;;;;;;4989937;28;20478;-50
2024/03/28 08:40:36;;;;;;;3.40;1.65;;;7.20;99.90;;;;;;4990840;28;20034;-53
2024/03/28 08:43:02;;;;;;;1.27;0.88;;;7.20;99.90;;;;;;4988235;28;20391;-53
2024/03/28 08:45:27;;;;;;;1.65;1.13;;;7.20;99.90;;;;;;4990121;28;20022;-52
2024/03/28 08:47:56;;;;;;;4.05;1.40;;;7.30;99.90;;;;;;4987912;28;20049;-52
2024/03/28 08:50:22;;;;;;;5.65;1.30;;;7.40;99.90;;;;;;4986135;28;20026;-55
2024/03/28 08:52:48;;;;;;;1.95;1.10;;;7.40;99.90;;;;;;4989263;28;20084;-51
2024/03/28 08:55:13;;;;;;;3.95;1.10;;;7.40;99.90;;;;;;4991013;28;20368;-53
2024/03/28 08:57:39;;;;;;;2.28;1.25;;;7.40;99.90;;;;;;4989203;28;20031;-50
2024/03/28 09:00:10;;;;;;;2.10;1.60;;;7.40;99.90;;;;;;4972548;28;20030;-52
2024/03/28 09:02:37;;;;;;;3.50;1.77;;;7.50;99.90;;;;;;4986388;28;20061;-54
2024/03/28 09:05:03;;;;;;;1.42;1.02;;;7.60;99.90;;;;;;4985144;28;20200;-55
2024/03/28 09:07:29;;;;;;;10.07;3.58;;;7.60;99.90;;;;;;4988579;28;20109;-51
2024/03/28 09:09:55;;;;;;;3.05;1.10;;;7.50;99.90;;;;;;4989128;28;20112;-54
2024/03/28 09:12:21;;;;;;;1.33;0.93;;;7.70;99.90;;;;;;4987415;28;20451;-52
2024/03/28 09:14:46;;;;;;;1.10;0.88;;;7.80;99.90;;;;;;4987886;28;20037;-53
2024/03/28 09:17:12;;;;;;;4.35;2.20;;;8.00;99.90;;;;;;4986549;28;20105;-53
2024/03/28 09:19:38;;;;;;;1.90;1.30;;;8.10;99.90;;;;;;4991902;28;20026;-54
2024/03/28 09:22:03;;;;;;;3.88;1.10;;;8.30;99.90;;;;;;4987870;28;20034;-51
2024/03/28 09:24:32;;;;;;;2.63;1.20;;;8.50;99.90;;;;;;4986470;28;20041;-56
2024/03/28 09:26:57;;;;;;;1.67;1.20;;;8.60;99.90;;;;;;4989657;28;20060;-54
2024/03/28 09:29:24;;;;;;;48.78;13.98;;;8.50;99.90;;;;;;4985191;28;20045;-52
2024/03/28 09:31:50;;;;;;;36.85;11.98;;;8.50;99.90;;;;;;4986068;28;20113;-50
2024/03/28 09:34:16;;;;;;;11.18;4.13;;;8.50;99.90;;;;;;4972018;28;20030;-54
2024/03/28 09:36:42;;;;;;;8.13;2.33;;;8.50;99.90;;;;;;4990141;28;20415;-51
2024/03/28 09:39:08;;;;;;;6.78;2.58;;;8.40;99.90;;;;;;4990779;28;20117;-50
2024/03/28 09:41:34;;;;;;;9.45;2.60;;;8.20;99.90;;;;;;4990237;28;20062;-53
2024/03/28 09:44:06;;;;;;;128.88;31.30;;;8.10;99.90;;;;;;4990034;28;20404;-52
2024/03/28 09:46:33;;;;;;;38.55;10.60;;;8.00;99.90;;;;;;4990132;28;20030;-52
2024/03/28 09:49:01;;;;;;;58.13;13.40;;;7.90;99.90;;;;;;4990920;28;20554;-54
2024/03/28 09:51:27;;;;;;;75.88;19.52;;;7.90;99.90;;;;;;4989473;28;20073;-50
2024/03/28 09:53:54;;;;;;;64.85;17.60;;;7.80;99.90;;;;;;4990800;28;20034;-50
2024/03/28 09:56:23;;;;;;;80.05;23.25;;;7.80;99.90;;;;;;4990261;28;20030;-53
2024/03/28 09:58:49;;;;;;;94.82;26.90;;;7.80;99.90;;;;;;4990238;28;20027;-52
2024/03/28 10:01:15;;;;;;;79.18;22.33;;;7.80;99.90;;;;;;4977780;28;20105;-51
2024/03/28 10:03:46;;;;;;;38.63;9.38;;;7.70;99.90;;;;;;4989397;28;20049;-54
2024/03/28 10:06:12;;;;;;;36.78;11.10;;;7.80;99.90;;;;;;4989994;28;20027;-53
2024/03/28 10:08:39;;;;;;;30.77;9.43;;;7.80;99.90;;;;;;4987853;28;20038;-51
2024/03/28 10:11:05;;;;;;;30.90;10.52;;;7.70;99.90;;;;;;4993082;28;20034;-53
2024/03/28 10:13:38;;;;;;;19.63;7.65;;;7.70;99.90;;;;;;4993348;28;20444;-50
2024/03/28 10:16:06;;;;;;;8.45;3.58;;;7.70;99.90;;;;;;4992185;28;20022;-52
2024/03/28 10:18:32;;;;;;;4.70;2.00;;;7.60;99.90;;;;;;4988616;28;20050;-50
2024/03/28 10:20:59;;;;;;;17.05;6.85;;;7.50;99.90;;;;;;4989577;28;20105;-53
2024/03/28 10:23:25;;;;;;;28.02;10.52;;;7.50;99.90;;;;;;4982046;28;20038;-50
2024/03/28 10:25:53;;;;;;;142.30;44.90;;;7.60;99.90;;;;;;4991804;28;20553;-54
2024/03/28 10:28:19;;;;;;;61.28;22.60;;;7.60;99.90;;;;;;4988475;28;20080;-51
2024/03/28 10:30:49;;;;;;;66.65;21.00;;;7.70;99.90;;;;;;4982568;28;20030;-54
2024/03/28 10:33:15;;;;;;;90.07;26.42;;;7.70;99.90;;;;;;4989231;28;20027;-54
2024/03/28 10:35:42;;;;;;;48.58;13.55;;;7.90;99.90;;;;;;4993074;28;20034;-50
2024/03/28 10:38:13;;;;;;;54.83;14.63;;;8.10;99.90;;;;;;4991789;28;20053;-51
2024/03/28 10:40:41;;;;;;;26.45;9.88;;;8.40;99.90;;;;;;4986162;28;20623;-51
2024/03/28 10:43:07;;;;;;;38.78;10.73;;;8.70;99.90;;;;;;4992042;28;20449;-50
2024/03/28 10:45:34;;;;;;;31.23;9.52;;;8.80;99.90;;;;;;4993542;28;20061;-53
2024/03/28 10:48:01;;;;;;;18.25;6.20;;;9.20;99.90;;;;;;4992848;28;20479;-52
2024/03/28 10:50:52;;;;;;;18.52;5.75;;;9.40;99.90;;;;;;4988378;28;20737;-52
2024/03/28 10:53:47;;;;;;;19.25;6.38;;;9.60;99.90;;;;;;4988335;28;20065;-55
2024/03/28 10:56:12;;;;;;;19.55;6.38;;;10.00;99.90;;;;;;4989051;28;20030;-55
2024/03/28 10:58:39;;;;;;;9.57;3.80;;;10.30;99.90;;;;;;4992999;28;20076;-53
2024/03/28 11:01:07;;;;;;;12.05;5.05;;;10.80;99.90;;;;;;4987657;28;20121;-54
2024/03/28 11:03:34;;;;;;;10.18;4.68;;;11.20;99.90;;;;;;4978357;28;20081;-52
2024/03/28 11:06:00;;;;;;;22.58;9.02;;;11.70;99.90;;;;;;4988272;28;20026;-50
2024/03/28 11:08:30;;;;;;;22.42;11.23;;;12.00;99.90;;;;;;4989879;28;20027;-51
2024/03/28 11:10:58;;;;;;;4.65;2.90;;;12.30;99.90;;;;;;4992788;28;20029;-53
2024/03/28 11:13:24;;;;;;;10.00;3.95;;;12.30;99.90;;;;;;4992231;28;20050;-52
2024/03/28 11:16:12;;;;;;;10.85;4.05;;;12.50;99.90;;;;;;4988305;28;20031;-53
2024/03/28 11:18:39;;;;;;;28.25;8.70;;;12.50;99.90;;;;;;4985038;28;20061;-54
2024/03/28 11:21:05;;;;;;;12.02;4.40;;;12.20;99.90;;;;;;4990222;28;20034;-50
2024/03/28 11:23:33;;;;;;;8.13;3.20;;;12.10;99.90;;;;;;4992166;28;20026;-51
2024/03/28 11:26:07;;;;;;;19.38;7.53;;;12.20;99.90;;;;;;4989659;28;20479;-56
2024/03/28 11:28:39;;;;;;;6.88;2.65;;;12.20;99.90;;;;;;4991394;28;20034;-53
2024/03/28 11:31:05;;;;;;;8.15;3.42;;;12.30;99.90;;;;;;4991755;28;20506;-53
2024/03/28 11:33:38;;;;;;;11.00;4.38;;;12.60;99.90;;;;;;4991897;28;20043;-53
2024/03/28 11:36:05;;;;;;;;;;;12.30;99.90;;;;;;4990610;28;20061;-53
2024/03/28 11:38:33;;;;;;;19.92;7.22;;;12.30;99.90;;;;;;4972607;28;20382;-51
2024/03/28 11:40:59;;;;;;;11.93;4.75;;;12.10;99.90;;;;;;4991728;28;20025;-53
2024/03/28 11:43:25;;;;;;;20.42;7.53;;;12.20;99.90;;;;;;4992475;28;20779;-54
2024/03/28 11:45:57;;;;;;;13.43;5.47;;;12.30;99.90;;;;;;4989936;28;20044;-56
2024/03/28 11:48:25;;;;;;;25.05;7.55;;;12.10;99.90;;;;;;4988501;28;20038;-53
2024/03/28 11:50:52;;;;;;;15.90;3.85;;;12.20;99.90;;;;;;4977337;28;20483;-51
2024/03/28 11:53:18;;;;;;;5.47;1.58;;;12.30;99.90;;;;;;4991631;28;20113;-53
2024/03/28 11:55:48;;;;;;;3.72;1.10;;;12.30;99.90;;;;;;4991950;28;20093;-51
2024/03/28 11:58:40;;;;;;;2.10;0.82;;;12.40;99.90;;;;;;4991112;28;20026;-54
2024/03/28 12:01:06;;;;;;;14.73;4.32;;;12.50;99.90;;;;;;4987994;28;20069;-53
2024/03/28 12:03:32;;;;;;;15.20;5.07;;;12.60;99.60;;;;;;4977867;28;20034;-54
2024/03/28 12:05:59;;;;;;;23.92;6.95;;;12.60;98.50;;;;;;4973779;28;20383;-52
2024/03/28 12:08:27;;;;;;;10.15;3.03;;;12.30;97.80;;;;;;4989510;28;20112;-51
2024/03/28 12:11:02;;;;;;;22.58;6.53;;;12.40;98.60;;;;;;4980734;28;20106;-52
2024/03/28 12:13:28;;;;;;;71.68;19.95;;;12.70;97.80;;;;;;4986204;28;20059;-51
2024/03/28 12:15:57;;;;;;;28.00;7.05;;;12.80;98.50;;;;;;4987476;28;20069;-50
2024/03/28 12:18:23;;;;;;;4.28;1.52;;;12.90;98.00;;;;;;4988461;28;20018;-52
2024/03/28 12:20:56;;;;;;;14.27;5.35;;;13.00;98.80;;;;;;4988896;28;20029;-51
2024/03/28 12:23:22;;;;;;;;;;;13.00;98.10;;;;;;4986190;28;20031;-51
2024/03/28 12:25:47;;;;;;;24.98;8.82;;;12.90;98.10;;;;;;4986051;28;19956;-52
2024/03/28 12:28:18;;;;;;;43.75;12.57;;;12.60;96.90;;;;;;4989864;28;20695;-50
2024/03/28 12:30:56;;;;;;;23.05;6.57;;;12.40;97.90;;;;;;4971491;28;20041;-51
2024/03/28 12:33:24;;;;;;;26.98;6.85;;;12.20;98.40;;;;;;4988019;28;20074;-51
2024/03/28 12:35:54;;;;;;;4.88;1.83;;;12.00;98.60;;;;;;4987824;28;20053;-50
2024/03/28 12:38:19;;;;;;;7.93;2.25;;;11.70;99.00;;;;;;4983332;28;20085;-50
2024/03/28 12:40:47;;;;;;;2.50;0.73;;;11.20;99.90;;;;;;4986703;28;20030;-52
2024/03/28 12:43:21;;;;;;;3.30;1.17;;;10.80;99.90;;;;;;4987026;28;20030;-52
2024/03/28 12:45:49;;;;;;;0.40;0.40;;;10.40;99.90;;;;;;4987160;28;20045;-50
2024/03/28 12:48:15;;;;;;;4.88;1.73;;;10.10;99.90;;;;;;4989927;28;20034;-50
2024/03/28 12:50:45;;;;;;;4.78;2.13;;;10.00;99.90;;;;;;4987944;28;20029;-51
2024/03/28 12:53:14;;;;;;;3.53;1.60;;;10.40;99.90;;;;;;4987590;28;20045;-53
2024/03/28 12:55:39;;;;;;;2.78;0.68;;;10.80;99.90;;;;;;4994234;28;20087;-52
2024/03/28 12:58:08;;;;;;;1.45;0.50;;;11.20;99.90;;;;;;4988872;28;20046;-53
2024/03/28 13:00:33;;;;;;;1.02;0.60;;;11.30;99.90;;;;;;4988206;28;20135;-51